This is the latest recevied weather packets stored in our database for station/object KC5DAQ-29. If no packets are shown the sender has not sent any weather packets the latest 1 day(s).
| Time | Temp. | Humidity | Pressure | Rain* | Wind** | Luminosity | Snow |
|---|---|---|---|---|---|---|---|
| 1778007303 | 27.22° C | 100% | 1006.4 hPa | 32.51 mm | 2.68 m/s, 257° | 373 W/m² | - |
| 1778007244 | 27.22° C | 100% | 1006.4 hPa | 32.51 mm | 2.68 m/s, 234° | 390 W/m² | - |
| 1778007182 | 27.22° C | 100% | 1006.4 hPa | 32.51 mm | 2.24 m/s, 158° | 390 W/m² | - |
| 1778007123 | 27.22° C | 100% | 1006.4 hPa | 32.51 mm | 2.68 m/s, 213° | 390 W/m² | - |
| 1778007063 | 27.22° C | 100% | 1006.4 hPa | 32.51 mm | 2.24 m/s, 214° | 390 W/m² | - |
| 1778007003 | 27.22° C | 100% | 1006.3 hPa | 32.51 mm | 1.34 m/s, 188° | 401 W/m² | - |
| 1778006942 | 27.22° C | 100% | 1006.4 hPa | 32.51 mm | 1.79 m/s, 206° | 382 W/m² | - |
| 1778006883 | 27.22° C | 100% | 1006.4 hPa | 32.51 mm | 1.79 m/s, 248° | 382 W/m² | - |
| 1778006824 | 27.22° C | 100% | 1006.4 hPa | 32.51 mm | 1.34 m/s, 175° | 234 W/m² | - |
| 1778006763 | 27.22° C | 100% | 1006.4 hPa | 32.51 mm | 1.34 m/s, 166° | 234 W/m² | - |
| 1778006703 | 26.67° C | 100% | 1006.3 hPa | 32.51 mm | 1.34 m/s, 173° | 234 W/m² | - |
| 1778006643 | 26.67° C | 100% | 1006.4 hPa | 32.51 mm | 0.89 m/s, 209° | 317 W/m² | - |
| 1778006584 | 26.67° C | 100% | 1006.4 hPa | 32.51 mm | 0.89 m/s, 206° | 317 W/m² | - |
| 1778006522 | 26.67° C | 100% | 1006.4 hPa | 32.51 mm | 1.79 m/s, 192° | 317 W/m² | - |
| 1778006463 | 26.67° C | 100% | 1006.4 hPa | 32.51 mm | 1.79 m/s, 192° | 317 W/m² | - |
| 1778006403 | 26.67° C | 100% | 1006.5 hPa | 32.51 mm | 1.79 m/s, 192° | 317 W/m² | - |
| 1778006343 | 26.67° C | 100% | 1006.5 hPa | 32.51 mm | 1.79 m/s, 192° | 317 W/m² | - |
| 1778006283 | 26.67° C | 100% | 1006.5 hPa | 32.51 mm | 1.79 m/s, 192° | 317 W/m² | - |
| 1778006222 | 26.67° C | 100% | 1006.4 hPa | 32.51 mm | 1.79 m/s, 192° | 317 W/m² | - |
| 1778006163 | 26.67° C | 100% | 1006.5 hPa | 32.51 mm | 1.79 m/s, 192° | 317 W/m² | - |
| 1778006103 | 26.67° C | 100% | 1006.5 hPa | 32.51 mm | 1.79 m/s, 207° | - | - |
| 1778006042 | 26.67° C | 100% | 1006.6 hPa | 32.51 mm | 1.79 m/s, 203° | - | - |
| 1778005982 | 26.67° C | 100% | 1006.6 hPa | 32.51 mm | 2.24 m/s, 209° | - | - |
| 1778005924 | 26.67° C | 100% | 1006.5 hPa | 32.51 mm | 3.13 m/s, 213° | - | - |
| 1778005863 | 26.67° C | 100% | 1006.5 hPa | 32.51 mm | 2.68 m/s, 204° | - | - |
* Rain latest hour (hover to see other rain measurements)
** Current wind speed in m/s (hover to see current wind gust speed)